首页
METAR-TAF:

METAR-TAF

机场 :

雷烏斯, 西班牙

纬度: 41-09N, 经度: 001-10E, 海拔: 71米

当前天气观测

该预报发布于32分钟前的06:30 UTC
风速4节,风向多变
温度 9°C
湿度 57%
气压 1009 hPa
能见度10公里或以上
1500米以下无云,无积雨云

METAR: LERS 170630Z VRB04KT CAVOK 09/01 Q1009

时间: 08:02 (07:02 UTC)

预报

该预报发布于5小时和2分钟前的02:00 UTC
预报有效从17日的 03点(UTC)到 18日的 03点(UTC)
风速9节,风向西
能见度10公里或以上
少量云层高于4000英尺
几率 40% :
短暂存在
从 17日的 05点(UTC)到 17日的 12点(UTC)
风速25节,风向西转西北,有时为40节阵风
成为
从 17日的 16点(UTC)到 17日的 18点(UTC)
风速3节,风向多变

TAF: LERS 170200Z 1703/1803 28009KT 9999 FEW040 TX15/1713Z TN06/1706Z PROB40 TEMPO 1705/1712 30025G40KT BECMG 1716/1718 VRB03KT

超过4000个机场的气象观测和天气预报(METAR&TAF报告)。

可查询的气象台以黄色和红色小点在地图上表示。

将鼠标移到小点上方,可查看气象台名称。

然后点击查看天气观测和预报。

如需切换地图:点击带黑十字的绿色按钮放大地图;点击带横线的绿色按钮缩小地图;或者点击绿色箭头查看邻近地区的地图。


METAR-TAF: